Time;durP1;ratioP1;P1;durP2;ratioP2;P2;SDS_P1;SDS_P2;PMS_P1;PMS_P2;Temp;Humidity;BMP_temperature;BMP_pressure;BME280_temperature;BME280_humidity;BME280_pressure;Samples;Min_cycle;Max_cycle;Signal;HPM_P1;HPM_P2
2021/07/16 09:16:18;;;;;;;14.93;10.98;;;22.10;90.20;;;;;;5105726;27;20395;-70
2021/07/16 09:18:47;;;;;;;18.42;10.98;;;22.20;90.20;;;;;;5083676;28;20530;-70
2021/07/16 09:21:12;;;;;;;20.90;11.50;;;22.20;90.10;;;;;;5084415;28;20713;-69
2021/07/16 09:23:43;;;;;;;19.20;10.02;;;22.20;90.10;;;;;;5084893;28;20464;-69
2021/07/16 09:26:13;;;;;;;25.90;10.18;;;22.20;90.00;;;;;;5085183;28;20042;-69
2021/07/16 09:28:47;;;;;;;19.30;9.75;;;22.30;90.00;;;;;;5084742;28;20012;-69
2021/07/16 09:31:27;;;;;;;15.88;10.02;;;22.30;90.10;;;;;;5084650;28;20024;-68
2021/07/16 09:33:57;;;;;;;19.67;9.95;;;22.30;90.10;;;;;;5096365;28;20024;-70
2021/07/16 09:36:34;;;;;;;15.23;9.27;;;22.30;90.00;;;;;;5065313;28;20032;-72
2021/07/16 09:39:16;;;;;;;19.38;9.40;;;22.30;90.00;;;;;;5085752;28;20369;-70
2021/07/16 09:41:51;;;;;;;19.33;9.85;;;22.40;89.90;;;;;;5084377;28;20024;-69
2021/07/16 09:44:29;;;;;;;15.77;8.82;;;22.40;89.60;;;;;;5085565;28;20035;-70
2021/07/16 09:47:11;;;;;;;24.23;8.98;;;22.40;89.60;;;;;;5084309;28;20525;-71
2021/07/16 09:49:37;;;;;;;15.35;8.32;;;22.40;89.50;;;;;;5072892;28;20052;-67
2021/07/16 09:52:18;;;;;;;14.23;9.10;;;22.40;89.40;;;;;;5083790;28;20550;-69
2021/07/16 09:55:30;;;;;;;19.38;8.75;;;22.50;89.80;;;;;;5082925;28;20056;-67
2021/07/16 09:57:56;;;;;;;20.15;8.73;;;22.50;89.60;;;;;;5079414;28;20047;-68
2021/07/16 10:00:23;;;;;;;17.00;9.10;;;22.60;89.80;;;;;;5083562;28;20099;-65
2021/07/16 10:02:50;;;;;;;17.33;8.82;;;22.60;89.80;;;;;;5075185;28;20123;-68
2021/07/16 10:05:15;;;;;;;17.27;8.18;;;22.60;89.60;;;;;;5084477;28;20509;-67
2021/07/16 10:07:42;;;;;;;14.90;7.93;;;22.60;89.80;;;;;;5083048;28;20038;-67
2021/07/16 10:10:10;;;;;;;16.17;8.40;;;22.60;89.40;;;;;;5085886;28;20115;-66
2021/07/16 10:12:36;;;;;;;16.00;8.00;;;22.60;89.40;;;;;;5081844;28;20047;-68
2021/07/16 10:15:02;;;;;;;18.13;7.60;;;22.60;89.20;;;;;;5082111;28;20052;-69
2021/07/16 10:17:28;;;;;;;14.70;7.57;;;22.60;89.20;;;;;;5075545;28;20021;-67
2021/07/16 10:19:53;;;;;;;13.82;7.95;;;22.60;89.10;;;;;;5075502;28;20107;-66
2021/07/16 10:22:19;;;;;;;14.80;8.15;;;22.60;89.10;;;;;;5083363;28;20119;-66
2021/07/16 10:24:44;;;;;;;18.48;8.07;;;22.50;89.60;;;;;;5084201;28;20074;-71
2021/07/16 10:27:10;;;;;;;17.48;7.20;;;22.60;89.20;;;;;;5071966;28;20432;-67
2021/07/16 10:29:42;;;;;;;17.50;8.00;;;22.70;89.20;;;;;;5068173;28;20111;-66
2021/07/16 10:32:11;;;;;;;17.80;7.72;;;23.00;89.10;;;;;;5072155;28;20501;-68
2021/07/16 10:34:37;;;;;;;18.27;7.45;;;22.60;88.90;;;;;;5070640;28;20103;-69
2021/07/16 10:37:05;;;;;;;19.33;7.97;;;22.60;89.00;;;;;;5069563;28;20036;-67
2021/07/16 10:39:43;;;;;;;16.13;7.82;;;22.70;89.70;;;;;;5068141;28;20479;-69
2021/07/16 10:42:27;;;;;;;17.30;7.28;;;22.70;89.00;;;;;;5063673;28;20032;-68
2021/07/16 10:45:00;;;;;;;19.27;7.57;;;22.70;88.80;;;;;;5069550;28;20107;-69
2021/07/16 10:47:42;;;;;;;12.73;6.78;;;22.70;89.20;;;;;;5065641;28;20062;-67
2021/07/16 10:50:08;;;;;;;12.85;7.22;;;22.80;88.70;;;;;;5069054;28;20529;-69
2021/07/16 10:52:44;;;;;;;13.75;7.15;;;22.80;88.50;;;;;;5068969;28;20163;-67
2021/07/16 10:55:10;;;;;;;20.02;7.22;;;22.80;88.70;;;;;;5064823;28;20051;-67
2021/07/16 10:57:42;;;;;;;15.63;7.18;;;22.80;88.50;;;;;;5078444;28;20031;-67
2021/07/16 11:00:10;;;;;;;16.77;7.05;;;22.80;88.50;;;;;;5081939;28;20095;-67
2021/07/16 11:02:42;;;;;;;16.35;7.20;;;22.80;88.70;;;;;;5072116;28;20020;-66
2021/07/16 11:05:46;;;;;;;14.20;6.97;;;22.90;88.40;;;;;;5077031;28;20043;-71
2021/07/16 11:08:36;;;;;;;15.15;6.72;;;22.90;88.00;;;;;;5060575;28;20127;-71
2021/07/16 11:11:09;;;;;;;17.38;6.90;;;22.90;87.90;;;;;;5059824;28;20033;-72
2021/07/16 11:13:34;;;;;;;16.90;7.05;;;22.90;87.90;;;;;;5072083;28;20119;-70
2021/07/16 11:16:32;;;;;;;17.88;7.60;;;22.80;87.70;;;;;;5072094;28;20123;-64
2021/07/16 11:19:03;;;;;;;14.45;7.60;;;22.90;87.80;;;;;;5043104;28;20502;-66
2021/07/16 11:21:40;;;;;;;15.10;8.25;;;23.70;86.10;;;;;;5014407;28;20104;-69
2021/07/16 11:24:15;;;;;;;14.70;7.85;;;24.80;82.30;;;;;;5032279;28;20022;-67
2021/07/16 11:27:06;;;;;;;13.90;6.78;;;25.60;78.70;;;;;;5027256;28;20021;-68
2021/07/16 11:29:45;;;;;;;17.27;7.97;;;26.20;75.30;;;;;;5030901;28;20017;-69
2021/07/16 11:32:25;;;;;;;13.95;7.35;;;26.60;73.20;;;;;;5026540;28;20102;-70
2021/07/16 11:35:06;;;;;;;16.58;6.78;;;26.80;71.50;;;;;;5027484;28;20033;-71
2021/07/16 11:37:35;;;;;;;16.23;6.68;;;26.90;70.80;;;;;;5022249;28;20064;-67
2021/07/16 11:40:03;;;;;;;19.63;7.68;;;27.10;69.80;;;;;;5028707;28;20040;-66
2021/07/16 11:42:30;;;;;;;19.25;7.85;;;26.90;71.70;;;;;;5028946;28;20484;-66
2021/07/16 11:44:56;;;;;;;12.80;7.20;;;26.90;71.50;;;;;;5027738;28;20033;-67
2021/07/16 11:47:23;;;;;;;17.90;7.90;;;27.10;71.60;;;;;;5037541;28;20140;-69
2021/07/16 11:49:50;;;;;;;19.40;7.53;;;27.10;71.90;;;;;;5037519;28;20092;-63
2021/07/16 11:52:17;;;;;;;19.20;7.85;;;27.00;71.90;;;;;;5034997;28;20037;-63
2021/07/16 11:54:43;;;;;;;15.00;7.20;;;27.00;72.40;;;;;;5031480;28;20033;-61
2021/07/16 11:57:08;;;;;;;16.80;7.22;;;26.60;73.50;;;;;;5032895;28;20495;-70
2021/07/16 11:59:34;;;;;;;16.08;7.38;;;25.60;78.20;;;;;;5036035;28;20034;-74
2021/07/16 12:02:07;;;;;;;15.02;7.88;;;25.00;80.80;;;;;;5030891;28;20018;-71
2021/07/16 12:04:33;;;;;;;15.65;7.35;;;24.60;82.70;;;;;;5039975;28;20044;-73
2021/07/16 12:06:58;;;;;;;15.30;7.32;;;23.80;83.90;;;;;;5027065;28;20111;-64
2021/07/16 12:09:34;;;;;;;12.75;6.22;;;24.60;85.00;;;;;;5023269;28;20033;-59
2021/07/16 12:12:11;;;;;;;12.60;6.13;;;25.50;81.00;;;;;;5002448;28;20040;-58
2021/07/16 12:14:58;;;;;;;14.35;5.82;;;26.90;73.50;;;;;;5023481;28;20049;-59
2021/07/16 12:17:25;;;;;;;11.55;6.00;;;27.20;73.30;;;;;;5027847;28;20041;-67
2021/07/16 12:19:51;;;;;;;16.45;6.47;;;27.20;72.00;;;;;;5028260;28;20032;-59
2021/07/16 12:22:19;;;;;;;11.40;6.38;;;26.70;74.70;;;;;;5012062;28;20085;-58
2021/07/16 12:24:45;;;;;;;14.43;6.68;;;27.20;73.10;;;;;;5025675;28;20040;-60
2021/07/16 12:27:11;;;;;;;13.20;6.50;;;27.10;71.80;;;;;;5030658;28;20415;-59
2021/07/16 12:29:37;;;;;;;11.95;5.95;;;27.00;72.30;;;;;;5038186;28;20115;-59
2021/07/16 12:32:03;;;;;;;11.48;6.25;;;26.80;73.90;;;;;;5028943;28;20025;-60
2021/07/16 12:34:29;;;;;;;12.82;6.05;;;27.00;73.00;;;;;;5028706;28;20044;-61
2021/07/16 12:37:10;;;;;;;12.05;6.07;;;27.60;72.20;;;;;;5036223;28;20021;-60
2021/07/16 12:39:36;;;;;;;14.30;6.15;;;27.40;71.90;;;;;;5022940;28;20063;-58
2021/07/16 12:42:08;;;;;;;13.48;6.20;;;27.00;75.30;;;;;;5032546;28;20477;-57
2021/07/16 12:44:34;;;;;;;10.55;5.45;;;27.30;73.50;;;;;;5034037;28;20420;-58
2021/07/16 12:46:59;;;;;;;8.00;5.75;;;27.30;72.70;;;;;;5035744;28;20021;-58
2021/07/16 12:49:25;;;;;;;9.25;6.07;;;27.40;71.70;;;;;;5042070;28;20057;-57
2021/07/16 12:51:50;;;;;;;10.80;5.20;;;27.80;70.20;;;;;;5037812;28;20532;-57
2021/07/16 12:54:24;;;;;;;8.73;5.35;;;28.60;68.50;;;;;;5035118;28;20511;-56
2021/07/16 12:56:50;;;;;;;9.50;5.13;;;28.70;67.40;;;;;;5033566;28;20040;-53
2021/07/16 12:59:34;;;;;;;3.58;2.85;;;40.80;38.80;;;;;;5023599;28;20439;-55
